createdAt,value
2018-01-13T00:00:33.542Z,93.06
2018-01-13T00:03:01.937Z,92.81
2018-01-13T00:05:30.392Z,92.57
2018-01-13T00:07:58.749Z,92.67
2018-01-13T00:10:27.372Z,92.55
2018-01-13T00:12:55.703Z,92.57
2018-01-13T00:15:24.298Z,92.57
2018-01-13T00:17:52.645Z,92.60
2018-01-13T00:20:21.912Z,92.42
2018-01-13T00:22:50.345Z,92.28
2018-01-13T00:25:18.761Z,92.30
2018-01-13T00:27:47.092Z,92.36
2018-01-13T00:30:15.508Z,92.26
2018-01-13T00:32:43.956Z,92.12
2018-01-13T00:35:12.288Z,91.86
2018-01-13T00:37:40.677Z,91.86
2018-01-13T00:40:09.859Z,91.80
2018-01-13T00:42:38.261Z,91.55
2018-01-13T00:45:07.371Z,91.24
2018-01-13T00:47:35.775Z,91.62
2018-01-13T00:50:04.213Z,91.31
2018-01-13T00:52:33.319Z,91.30
2018-01-13T00:55:02.405Z,91.63
2018-01-13T00:57:31.655Z,91.53
2018-01-13T01:00:00.067Z,91.96
2018-01-13T01:02:29.176Z,91.93
2018-01-13T01:04:57.542Z,91.74
2018-01-13T01:07:25.942Z,91.78
2018-01-13T01:09:54.419Z,91.73
2018-01-13T01:12:23.576Z,91.77
2018-01-13T01:14:51.982Z,92.11
2018-01-13T01:17:21.186Z,92.05
2018-01-13T01:19:50.346Z,91.80
2018-01-13T01:22:18.712Z,91.93
2018-01-13T01:24:47.101Z,91.99
2018-01-13T01:27:15.586Z,92.18
2018-01-13T01:29:44.013Z,92.02
2018-01-13T01:32:13.170Z,92.05
2018-01-13T01:34:41.568Z,91.93
2018-01-13T01:37:09.958Z,91.88
2018-01-13T01:39:39.078Z,91.87
2018-01-13T01:42:07.508Z,91.84
2018-01-13T01:44:35.853Z,91.87
2018-01-13T01:47:04.250Z,91.77
2018-01-13T01:49:32.663Z,91.86
2018-01-13T01:52:01.810Z,91.61
2018-01-13T01:54:30.273Z,91.70
2018-01-13T01:56:58.717Z,91.68
2018-01-13T01:59:27.831Z,91.83
2018-01-13T02:01:56.947Z,91.94
2018-01-13T02:04:25.279Z,92.11
2018-01-13T02:06:53.705Z,91.90
2018-01-13T02:09:22.071Z,92.00
2018-01-13T02:11:50.399Z,91.98
2018-01-13T02:14:18.746Z,91.95
2018-01-13T02:16:47.169Z,91.83
2018-01-13T02:19:15.578Z,91.72
2018-01-13T02:21:43.932Z,91.60
2018-01-13T02:24:12.585Z,91.38
2018-01-13T02:26:41.013Z,91.39
2018-01-13T02:29:09.383Z,91.21
2018-01-13T02:31:38.537Z,91.64
2018-01-13T02:34:06.930Z,91.43
2018-01-13T02:36:35.265Z,91.85
2018-01-13T02:39:03.690Z,91.65
2018-01-13T02:41:32.098Z,91.87
2018-01-13T02:44:00.471Z,91.96
2018-01-13T02:46:29.604Z,92.01
2018-01-13T02:48:57.947Z,91.98
2018-01-13T02:51:27.051Z,92.19
2018-01-13T02:53:56.223Z,92.44
2018-01-13T02:56:24.628Z,92.38
2018-01-13T02:58:53.060Z,92.32
2018-01-13T03:01:21.527Z,92.24
2018-01-13T03:03:49.943Z,92.79
2018-01-13T03:06:19.047Z,92.80
2018-01-13T03:08:48.257Z,92.71
2018-01-13T03:11:17.421Z,92.84
2018-01-13T03:13:45.762Z,92.67
2018-01-13T03:16:14.193Z,92.53
2018-01-13T03:18:43.343Z,92.62
2018-01-13T03:21:11.749Z,92.42
2018-01-13T03:23:40.195Z,92.41
2018-01-13T03:26:08.596Z,92.47
2018-01-13T03:28:36.997Z,92.33
2018-01-13T03:31:05.426Z,92.35
2018-01-13T03:33:33.826Z,92.59
2018-01-13T03:36:02.262Z,92.38
2018-01-13T03:38:30.594Z,92.20
2018-01-13T03:40:58.993Z,92.16
2018-01-13T03:43:27.427Z,92.92
2018-01-13T03:45:55.826Z,93.48
2018-01-13T03:48:24.243Z,93.63
2018-01-13T03:50:53.404Z,93.62
2018-01-13T03:53:21.799Z,93.84
2018-01-13T03:55:50.136Z,93.67
2018-01-13T03:58:18.572Z,93.77
2018-01-13T04:00:47.690Z,93.49
2018-01-13T04:03:16.008Z,93.04
2018-01-13T04:05:44.557Z,93.29
2018-01-13T04:08:12.919Z,93.22
2018-01-13T04:10:42.063Z,93.22
2018-01-13T04:13:10.482Z,93.07
2018-01-13T04:15:39.607Z,92.79
2018-01-13T04:18:08.091Z,92.65
2018-01-13T04:20:36.427Z,92.46
2018-01-13T04:23:04.817Z,92.63
2018-01-13T04:25:34.110Z,92.57
2018-01-13T04:28:03.204Z,92.64
2018-01-13T04:30:31.593Z,92.72
2018-01-13T04:33:00.731Z,92.51
2018-01-13T04:35:29.085Z,92.61
2018-01-13T04:37:57.412Z,92.84
2018-01-13T04:40:25.827Z,93.17
2018-01-13T04:42:54.993Z,93.08
2018-01-13T04:45:23.398Z,93.04
2018-01-13T04:47:52.546Z,92.93
2018-01-13T04:50:20.951Z,93.02
2018-01-13T04:52:49.381Z,92.75
2018-01-13T04:55:17.727Z,92.47
2018-01-13T04:57:47.003Z,92.30
2018-01-13T05:00:15.401Z,92.05
2018-01-13T05:02:44.554Z,91.98
2018-01-13T05:05:12.997Z,92.00
2018-01-13T05:07:41.398Z,91.88
2018-01-13T05:10:09.789Z,91.91
2018-01-13T05:12:38.204Z,91.75
2018-01-13T05:15:06.609Z,91.68
2018-01-13T05:17:35.723Z,91.86
2018-01-13T05:20:04.074Z,91.72
2018-01-13T05:22:33.180Z,91.40
2018-01-13T05:25:02.415Z,91.59
2018-01-13T05:27:30.856Z,91.60
2018-01-13T05:29:59.953Z,91.37
2018-01-13T05:32:29.151Z,91.75
2018-01-13T05:34:57.487Z,91.51
2018-01-13T05:37:25.909Z,91.58
2018-01-13T05:39:54.884Z,91.13
2018-01-13T05:42:24.237Z,91.32
2018-01-13T05:44:52.730Z,91.43
2018-01-13T05:47:21.070Z,91.65
2018-01-13T05:49:49.431Z,91.59
2018-01-13T05:52:18.674Z,91.51
2018-01-13T05:54:47.075Z,91.51
2018-01-13T05:57:15.409Z,91.30
2018-01-13T05:59:43.952Z,91.44
2018-01-13T06:02:12.296Z,91.16
2018-01-13T06:04:40.627Z,91.33
2018-01-13T06:07:09.805Z,91.28
2018-01-13T06:09:38.139Z,91.23
2018-01-13T06:12:06.468Z,91.07
2018-01-13T06:14:35.605Z,90.95
2018-01-13T06:17:04.014Z,91.25
2018-01-13T06:19:32.413Z,90.95
2018-01-13T06:22:01.633Z,90.71
2018-01-13T06:24:29.966Z,91.12
2018-01-13T06:26:58.287Z,91.06
2018-01-13T06:29:27.476Z,91.16
2018-01-13T06:31:56.659Z,91.28
2018-01-13T06:34:26.033Z,91.45
2018-01-13T06:36:54.395Z,91.30
2018-01-13T06:39:22.794Z,91.11
2018-01-13T06:41:51.265Z,91.04
2018-01-13T06:44:19.717Z,91.11
2018-01-13T06:46:48.050Z,91.04
2018-01-13T06:49:16.434Z,91.00
2018-01-13T06:51:44.846Z,90.63
2018-01-13T06:54:13.282Z,90.63
2018-01-13T06:56:41.739Z,90.96
2018-01-13T06:59:10.104Z,90.81
2018-01-13T07:01:38.444Z,90.82
2018-01-13T07:04:07.835Z,91.10
2018-01-13T07:06:37.008Z,91.08
2018-01-13T07:09:05.386Z,91.26
2018-01-13T07:11:33.858Z,91.24
2018-01-13T07:14:02.216Z,91.02
2018-01-13T07:16:30.727Z,91.07
2018-01-13T07:18:59.122Z,90.99
2018-01-13T07:21:28.290Z,90.91
2018-01-13T07:23:56.745Z,90.67
2018-01-13T07:26:25.146Z,90.63
2018-01-13T07:28:53.575Z,90.82
2018-01-13T07:31:21.952Z,90.68
2018-01-13T07:33:51.115Z,90.60
2018-01-13T07:36:19.510Z,90.65
2018-01-13T07:38:48.723Z,90.61
2018-01-13T07:41:17.841Z,91.03
2018-01-13T07:43:46.176Z,90.75
2018-01-13T07:46:16.179Z,90.86
2018-01-13T07:48:44.580Z,90.66
2018-01-13T07:51:13.740Z,90.58
2018-01-13T07:53:42.170Z,90.41
2018-01-13T07:56:11.281Z,90.58
2018-01-13T07:58:39.804Z,90.69
2018-01-13T08:01:08.254Z,90.32
2018-01-13T08:03:36.662Z,89.77
2018-01-13T08:06:05.065Z,90.12
2018-01-13T08:08:34.317Z,89.78
2018-01-13T08:11:03.592Z,89.87
2018-01-13T08:13:32.174Z,89.87
2018-01-13T08:16:00.755Z,90.25
2018-01-13T08:18:29.123Z,90.46
2018-01-13T08:20:58.392Z,90.50
2018-01-13T08:23:28.338Z,90.54
2018-01-13T08:25:57.463Z,90.37
2018-01-13T08:28:25.874Z,90.25
2018-01-13T08:30:54.329Z,90.06
2018-01-13T08:33:22.718Z,90.27
2018-01-13T08:35:51.190Z,90.33
2018-01-13T08:38:19.645Z,91.00
2018-01-13T08:40:48.042Z,91.30
2018-01-13T08:43:16.464Z,91.19
2018-01-13T08:45:44.850Z,91.54
2018-01-13T08:48:13.303Z,91.74
2018-01-13T08:50:41.706Z,92.06
2018-01-13T08:53:10.192Z,92.25
2018-01-13T08:55:38.618Z,92.06
2018-01-13T08:58:06.973Z,92.33
2018-01-13T09:00:35.534Z,92.02
2018-01-13T09:03:04.712Z,91.71
2018-01-13T09:05:33.321Z,91.50
2018-01-13T09:08:02.459Z,91.81
2018-01-13T09:10:30.782Z,91.65
2018-01-13T09:12:59.173Z,91.56
2018-01-13T09:15:28.344Z,91.43
2018-01-13T09:17:56.831Z,91.22
2018-01-13T09:20:25.518Z,91.01
2018-01-13T09:22:53.922Z,91.10
2018-01-13T09:25:23.084Z,91.04
2018-01-13T09:27:51.890Z,90.60
2018-01-13T09:30:20.313Z,90.15
2018-01-13T09:32:48.810Z,90.00
2018-01-13T09:35:17.238Z,90.62
2018-01-13T09:37:46.442Z,90.49
2018-01-13T09:40:14.872Z,90.80
2018-01-13T09:42:43.305Z,90.49
2018-01-13T09:45:11.724Z,89.92
2018-01-13T09:47:40.276Z,89.66
2018-01-13T09:50:09.621Z,89.68
2018-01-13T09:52:38.118Z,89.66
2018-01-13T09:55:06.834Z,89.75
2018-01-13T09:57:35.204Z,89.45
2018-01-13T10:00:03.595Z,89.13
2018-01-13T10:02:32.119Z,89.60
2018-01-13T10:05:01.068Z,89.56
2018-01-13T10:07:29.606Z,89.26
2018-01-13T10:09:58.031Z,89.21
2018-01-13T10:12:27.183Z,89.84
2018-01-13T10:14:55.614Z,89.65
2018-01-13T10:17:23.984Z,89.96
2018-01-13T10:19:53.277Z,89.72
2018-01-13T10:22:22.389Z,89.84
2018-01-13T10:24:51.583Z,89.84
2018-01-13T10:27:19.964Z,89.82
2018-01-13T10:29:49.135Z,89.92
2018-01-13T10:32:18.243Z,90.03
2018-01-13T10:34:47.370Z,89.70
2018-01-13T10:37:15.702Z,89.15
2018-01-13T10:39:44.340Z,89.19
2018-01-13T10:42:12.712Z,88.70
2018-01-13T10:44:41.140Z,88.87
2018-01-13T10:47:09.598Z,88.14
2018-01-13T10:49:38.023Z,87.98
2018-01-13T10:52:07.183Z,87.33
2018-01-13T10:54:37.443Z,86.68
2018-01-13T10:57:06.597Z,86.11
2018-01-13T10:59:34.939Z,86.33
2018-01-13T11:02:03.275Z,86.42
2018-01-13T11:04:31.660Z,86.08
2018-01-13T11:06:59.995Z,85.98
2018-01-13T11:09:28.445Z,85.59
2018-01-13T11:11:56.947Z,84.63
2018-01-13T11:14:26.184Z,83.53
2018-01-13T11:16:55.385Z,81.83
2018-01-13T11:19:23.729Z,80.86
2018-01-13T11:21:52.135Z,79.98
2018-01-13T11:24:20.586Z,78.79
2018-01-13T11:26:48.957Z,78.25
2018-01-13T11:29:17.348Z,77.98
2018-01-13T11:31:45.768Z,78.12
2018-01-13T11:34:14.867Z,77.47
2018-01-13T11:36:44.001Z,77.69
2018-01-13T11:39:12.416Z,78.21
2018-01-13T11:41:40.817Z,78.71
2018-01-13T11:44:09.954Z,77.54
2018-01-13T11:46:38.322Z,77.89
2018-01-13T11:49:06.734Z,77.79
2018-01-13T11:51:35.072Z,77.52
2018-01-13T11:54:04.259Z,76.91
2018-01-13T11:56:33.361Z,77.21
2018-01-13T11:59:01.723Z,75.41
2018-01-13T12:01:30.055Z,75.00
2018-01-13T12:03:58.442Z,75.07
2018-01-13T12:06:26.803Z,75.64
2018-01-13T12:08:55.194Z,75.73
2018-01-13T12:11:24.323Z,74.18
2018-01-13T12:13:52.741Z,74.55
2018-01-13T12:16:21.076Z,73.94
2018-01-13T12:18:49.393Z,74.35
2018-01-13T12:21:17.732Z,73.58
2018-01-13T12:23:46.058Z,73.96
2018-01-13T12:26:14.443Z,72.58
2018-01-13T12:28:42.811Z,73.59
2018-01-13T12:31:11.224Z,73.09
2018-01-13T12:33:41.067Z,73.52
2018-01-13T12:36:10.171Z,72.87
2018-01-13T12:38:39.375Z,72.92
2018-01-13T12:41:08.590Z,72.97
2018-01-13T12:43:36.975Z,72.92
2018-01-13T12:46:05.311Z,73.16
2018-01-13T12:48:33.703Z,73.82
2018-01-13T12:51:02.069Z,74.11
2018-01-13T12:53:30.429Z,73.04
2018-01-13T12:55:58.851Z,73.93
2018-01-13T12:58:27.223Z,73.32
2018-01-13T13:00:56.383Z,73.88
2018-01-13T13:03:24.745Z,73.43
2018-01-13T13:05:53.237Z,74.00
2018-01-13T13:08:21.571Z,73.08
2018-01-13T13:10:49.887Z,72.45
2018-01-13T13:13:18.270Z,73.04
2018-01-13T13:15:46.601Z,72.65
2018-01-13T13:18:14.957Z,72.13
2018-01-13T13:20:44.138Z,72.03
2018-01-13T13:23:13.307Z,71.67
2018-01-13T13:25:41.727Z,71.88
2018-01-13T13:28:10.923Z,71.88
2018-01-13T13:30:40.108Z,72.15
2018-01-13T13:33:08.445Z,72.19
2018-01-13T13:35:36.862Z,71.86
2018-01-13T13:38:05.268Z,72.58
2018-01-13T13:40:33.607Z,72.63
2018-01-13T13:43:02.066Z,72.71
2018-01-13T13:45:30.482Z,72.89
2018-01-13T13:47:59.621Z,72.94
2018-01-13T13:50:27.979Z,72.32
2018-01-13T13:52:57.185Z,71.83
2018-01-13T13:55:25.576Z,71.98
2018-01-13T13:57:54.079Z,72.00
2018-01-13T14:00:22.418Z,71.96
2018-01-13T14:02:50.764Z,71.20
2018-01-13T14:05:19.198Z,71.22
2018-01-13T14:07:47.528Z,71.20
2018-01-13T14:10:16.646Z,70.96
2018-01-13T14:12:45.834Z,71.02
2018-01-13T14:15:15.097Z,71.44
2018-01-13T14:17:43.424Z,71.65
2018-01-13T14:20:12.298Z,71.78
2018-01-13T14:22:40.706Z,71.85
2018-01-13T14:25:09.048Z,71.64
2018-01-13T14:27:38.228Z,71.83
2018-01-13T14:30:06.647Z,72.29
2018-01-13T14:32:35.065Z,71.67
2018-01-13T14:35:03.439Z,71.69
2018-01-13T14:37:31.861Z,72.18
2018-01-13T14:40:01.050Z,71.50
2018-01-13T14:42:30.221Z,71.55
2018-01-13T14:44:58.601Z,71.25
2018-01-13T14:47:26.990Z,71.18
2018-01-13T14:49:55.333Z,71.07
2018-01-13T14:52:23.752Z,71.25
2018-01-13T14:54:52.160Z,71.52
2018-01-13T14:57:20.516Z,71.17
2018-01-13T14:59:48.922Z,71.59
2018-01-13T15:02:17.252Z,71.13
2018-01-13T15:04:45.860Z,71.79
2018-01-13T15:07:14.309Z,71.37
2018-01-13T15:09:42.716Z,71.82
2018-01-13T15:12:11.894Z,71.97
2018-01-13T15:14:40.286Z,71.47
2018-01-13T15:17:08.834Z,71.00
2018-01-13T15:19:37.206Z,71.90
2018-01-13T15:22:05.544Z,72.04
2018-01-13T15:24:34.643Z,72.34
2018-01-13T15:27:03.752Z,72.38
2018-01-13T15:29:32.103Z,72.49
2018-01-13T15:32:01.298Z,72.80
2018-01-13T15:34:29.647Z,73.21
2018-01-13T15:36:58.053Z,73.54
2018-01-13T15:39:27.272Z,74.22
2018-01-13T15:41:55.600Z,73.89
2018-01-13T15:44:24.007Z,73.32
2018-01-13T15:46:53.120Z,74.00
2018-01-13T15:49:22.276Z,74.01
2018-01-13T15:51:50.622Z,74.30
2018-01-13T15:54:19.127Z,74.20
2018-01-13T15:56:47.546Z,74.08
2018-01-13T15:59:16.771Z,74.24
2018-01-13T16:01:45.204Z,74.19
2018-01-13T16:04:14.348Z,74.16
2018-01-13T16:06:42.740Z,74.04
2018-01-13T16:09:11.173Z,74.06
2018-01-13T16:11:40.286Z,74.54
2018-01-13T16:14:09.420Z,74.43
2018-01-13T16:16:37.894Z,75.08
2018-01-13T16:19:06.309Z,74.77
2018-01-13T16:21:34.713Z,74.57
2018-01-13T16:24:03.147Z,74.38
2018-01-13T16:26:31.544Z,74.80
2018-01-13T16:28:59.880Z,74.39
2018-01-13T16:31:28.237Z,74.23
2018-01-13T16:33:57.395Z,75.17
2018-01-13T16:36:25.814Z,74.74
2018-01-13T16:38:54.269Z,74.91
2018-01-13T16:41:23.371Z,74.81
2018-01-13T16:43:51.743Z,75.03
2018-01-13T16:46:20.100Z,75.15
2018-01-13T16:48:48.548Z,75.12
2018-01-13T16:51:16.996Z,75.09
2018-01-13T16:53:46.187Z,75.12
2018-01-13T16:56:15.302Z,75.16
2018-01-13T16:58:43.930Z,75.37
2018-01-13T17:01:12.275Z,74.71
2018-01-13T17:03:40.779Z,75.06
2018-01-13T17:06:09.182Z,75.34
2018-01-13T17:08:37.579Z,75.34
2018-01-13T17:11:06.705Z,75.23
2018-01-13T17:13:35.125Z,75.26
2018-01-13T17:16:03.526Z,75.06
2018-01-13T17:18:31.872Z,75.16
2018-01-13T17:21:00.313Z,75.43
2018-01-13T17:23:28.651Z,74.96
2018-01-13T17:25:56.983Z,75.37
2018-01-13T17:28:25.371Z,75.16
2018-01-13T17:30:53.772Z,75.70
2018-01-13T17:33:22.120Z,75.24
2018-01-13T17:35:50.629Z,75.35
2018-01-13T17:38:18.963Z,75.04
2018-01-13T17:40:47.288Z,75.34
2018-01-13T17:43:15.640Z,75.25
2018-01-13T17:45:44.047Z,75.86
2018-01-13T17:48:12.371Z,75.96
2018-01-13T17:50:41.595Z,76.26
2018-01-13T17:53:10.026Z,76.51
2018-01-13T17:55:38.494Z,76.28
2018-01-13T17:58:07.065Z,76.54
2018-01-13T18:00:35.475Z,76.98
2018-01-13T18:03:04.613Z,76.73
2018-01-13T18:05:33.009Z,76.72
2018-01-13T18:08:02.197Z,76.98
2018-01-13T18:10:30.555Z,76.95
2018-01-13T18:12:58.956Z,77.01
2018-01-13T18:15:27.348Z,77.47
2018-01-13T18:17:56.127Z,77.83
2018-01-13T18:20:24.461Z,77.50
2018-01-13T18:22:53.552Z,77.79
2018-01-13T18:25:22.742Z,77.97
2018-01-13T18:27:51.935Z,77.97
2018-01-13T18:30:21.075Z,77.81
2018-01-13T18:32:49.453Z,78.14
2018-01-13T18:35:17.839Z,78.17
2018-01-13T18:37:46.402Z,78.03
2018-01-13T18:40:14.777Z,77.97
2018-01-13T18:42:43.180Z,77.96
2018-01-13T18:45:11.579Z,78.11
2018-01-13T18:47:40.123Z,78.16
2018-01-13T18:50:08.451Z,78.28
2018-01-13T18:52:36.879Z,79.72
2018-01-13T18:55:05.385Z,78.56
2018-01-13T18:57:33.784Z,77.75
2018-01-13T19:00:02.117Z,77.26
2018-01-13T19:02:30.473Z,76.83
2018-01-13T19:04:59.580Z,76.75
2018-01-13T19:07:28.347Z,76.36
2018-01-13T19:09:57.459Z,75.79
2018-01-13T19:12:26.543Z,75.35
2018-01-13T19:14:57.243Z,75.13
2018-01-13T19:17:25.950Z,74.62
2018-01-13T19:19:54.324Z,74.41
2018-01-13T19:22:22.756Z,74.28
2018-01-13T19:24:51.164Z,73.95
2018-01-13T19:27:19.491Z,73.61
2018-01-13T19:29:48.705Z,73.73
2018-01-13T19:32:17.060Z,73.74
2018-01-13T19:34:46.180Z,73.78
2018-01-13T19:37:14.662Z,73.35
2018-01-13T19:39:43.061Z,73.44
2018-01-13T19:42:12.231Z,73.37
2018-01-13T19:44:40.586Z,73.26
2018-01-13T19:47:09.736Z,72.86
2018-01-13T19:49:38.922Z,73.06
2018-01-13T19:52:07.514Z,72.67
2018-01-13T19:54:35.861Z,72.60
2018-01-13T19:57:04.196Z,72.42
2018-01-13T19:59:32.934Z,72.44
2018-01-13T20:02:01.347Z,72.50
2018-01-13T20:04:29.785Z,72.30
2018-01-13T20:06:58.211Z,72.57
2018-01-13T20:09:26.576Z,72.48
2018-01-13T20:11:54.923Z,72.37
2018-01-13T20:14:23.322Z,72.49
2018-01-13T20:16:51.663Z,72.19
2018-01-13T20:19:20.017Z,72.35
2018-01-13T20:21:49.188Z,72.23
2018-01-13T20:24:17.520Z,71.45
2018-01-13T20:26:45.903Z,71.00
2018-01-13T20:29:14.318Z,70.92
2018-01-13T20:31:42.774Z,70.23
2018-01-13T20:34:11.316Z,70.03
2018-01-13T20:36:40.405Z,70.25
2018-01-13T20:39:09.569Z,69.71
2018-01-13T20:41:37.927Z,69.98
2018-01-13T20:44:06.250Z,69.84
2018-01-13T20:46:34.668Z,69.64
2018-01-13T20:49:03.079Z,69.25
2018-01-13T20:51:31.548Z,69.51
2018-01-13T20:53:59.990Z,69.23
2018-01-13T20:56:28.316Z,69.00
2018-01-13T20:58:56.717Z,69.43
2018-01-13T21:01:25.087Z,69.50
2018-01-13T21:03:53.499Z,69.61
2018-01-13T21:06:22.616Z,70.00
2018-01-13T21:08:51.012Z,69.88
2018-01-13T21:11:19.545Z,69.56
2018-01-13T21:13:47.875Z,68.86
2018-01-13T21:16:16.197Z,68.59
2018-01-13T21:18:44.622Z,69.17
2018-01-13T21:21:12.975Z,69.73
2018-01-13T21:23:41.374Z,70.02
2018-01-13T21:26:09.798Z,69.81
2018-01-13T21:28:38.239Z,69.84
2018-01-13T21:31:06.561Z,68.91
2018-01-13T21:33:35.004Z,68.93
2018-01-13T21:36:03.356Z,68.74
2018-01-13T21:38:31.746Z,68.94
2018-01-13T21:41:00.255Z,68.55
2018-01-13T21:43:28.591Z,68.26
2018-01-13T21:45:57.003Z,68.64
2018-01-13T21:48:25.427Z,69.06
2018-01-13T21:50:54.539Z,69.43
2018-01-13T21:53:23.762Z,69.51
2018-01-13T21:55:52.273Z,69.50
2018-01-13T21:58:20.689Z,69.29
2018-01-13T22:00:49.102Z,69.30
2018-01-13T22:03:17.463Z,69.90
2018-01-13T22:05:45.787Z,69.98
2018-01-13T22:08:14.200Z,70.10
2018-01-13T22:10:42.569Z,69.80
2018-01-13T22:13:11.142Z,69.85
2018-01-13T22:15:40.315Z,69.92
2018-01-13T22:18:08.656Z,69.76
2018-01-13T22:20:37.051Z,69.83
2018-01-13T22:23:05.498Z,70.22
2018-01-13T22:25:33.881Z,70.21
2018-01-13T22:28:03.074Z,70.40
2018-01-13T22:30:31.399Z,70.58
2018-01-13T22:32:59.866Z,70.11
2018-01-13T22:35:28.253Z,69.38
2018-01-13T22:37:56.709Z,68.79
2018-01-13T22:40:25.113Z,68.84
2018-01-13T22:42:53.452Z,69.29
2018-01-13T22:45:21.889Z,68.83
2018-01-13T22:47:50.259Z,68.68
2018-01-13T22:50:18.658Z,68.81
2018-01-13T22:52:47.106Z,69.31
2018-01-13T22:55:15.499Z,69.28
2018-01-13T22:57:43.892Z,69.48
2018-01-13T23:00:12.228Z,69.20
2018-01-13T23:02:40.586Z,69.28
2018-01-13T23:05:09.107Z,69.10
2018-01-13T23:07:37.442Z,69.49
2018-01-13T23:10:05.772Z,69.67
2018-01-13T23:12:34.218Z,69.78
2018-01-13T23:15:02.718Z,69.62
2018-01-13T23:17:31.127Z,68.94
2018-01-13T23:19:59.559Z,69.23
2018-01-13T23:22:27.967Z,69.29
2018-01-13T23:24:56.393Z,69.09
2018-01-13T23:27:25.577Z,68.92
2018-01-13T23:29:54.006Z,68.87
2018-01-13T23:32:22.346Z,68.99
2018-01-13T23:34:51.615Z,69.23
2018-01-13T23:37:20.064Z,69.16
2018-01-13T23:39:48.392Z,69.52
2018-01-13T23:42:17.555Z,69.29
2018-01-13T23:44:45.973Z,69.36
2018-01-13T23:47:15.146Z,69.64
2018-01-13T23:49:44.362Z,68.73
2018-01-13T23:52:13.548Z,69.19
2018-01-13T23:54:42.717Z,69.18
2018-01-13T23:57:11.047Z,69.25
2018-01-13T23:59:40.159Z,69.10
